createdAt,value
2018-10-05T00:00:14.966Z,1018.57
2018-10-05T00:01:14.952Z,1018.54
2018-10-05T00:02:14.947Z,1018.54
2018-10-05T00:03:14.940Z,1018.54
2018-10-05T00:04:14.933Z,1018.57
2018-10-05T00:05:14.931Z,1018.54
2018-10-05T00:06:14.925Z,1018.56
2018-10-05T00:07:14.914Z,1018.54
2018-10-05T00:08:14.907Z,1018.59
2018-10-05T00:09:14.906Z,1018.53
2018-10-05T00:10:14.900Z,1018.53
2018-10-05T00:11:14.894Z,1018.55
2018-10-05T00:12:14.886Z,1018.53
2018-10-05T00:13:14.877Z,1018.51
2018-10-05T00:14:14.869Z,1018.52
2018-10-05T00:15:14.863Z,1018.54
2018-10-05T00:16:14.855Z,1018.51
2018-10-05T00:17:14.855Z,1018.51
2018-10-05T00:18:14.848Z,1018.50
2018-10-05T00:19:14.841Z,1018.50
2018-10-05T00:20:14.834Z,1018.51
2018-10-05T00:21:14.822Z,1018.49
2018-10-05T00:22:14.816Z,1018.47
2018-10-05T00:23:14.815Z,1018.41
2018-10-05T00:24:14.807Z,1018.42
2018-10-05T00:25:14.801Z,1018.43
2018-10-05T00:26:14.790Z,1018.41
2018-10-05T00:27:14.785Z,1018.47
2018-10-05T00:28:14.777Z,1018.41
2018-10-05T00:29:14.778Z,1018.42
2018-10-05T00:30:14.769Z,1018.38
2018-10-05T00:31:14.763Z,1018.42
2018-10-05T00:32:14.760Z,1018.38
2018-10-05T00:33:14.745Z,1018.33
2018-10-05T00:34:14.741Z,1018.36
2018-10-05T00:35:14.731Z,1018.36
2018-10-05T00:36:14.723Z,1018.34
2018-10-05T00:37:14.722Z,1018.36
2018-10-05T00:38:14.717Z,1018.36
2018-10-05T00:39:14.705Z,1018.33
2018-10-05T00:40:14.701Z,1018.31
2018-10-05T00:41:14.695Z,1018.30
2018-10-05T00:42:14.690Z,1018.36
2018-10-05T00:43:14.684Z,1018.35
2018-10-05T00:44:14.676Z,1018.32
2018-10-05T00:45:14.665Z,1018.33
2018-10-05T00:46:14.659Z,1018.33
2018-10-05T00:47:14.652Z,1018.34
2018-10-05T00:48:14.649Z,1018.31
2018-10-05T00:49:14.644Z,1018.29
2018-10-05T00:50:14.637Z,1018.30
2018-10-05T00:51:14.630Z,1018.26
2018-10-05T00:52:14.623Z,1018.24
2018-10-05T00:53:14.712Z,1018.27
2018-10-05T00:54:14.609Z,1018.23
2018-10-05T00:55:14.604Z,1018.23
2018-10-05T00:56:14.596Z,1018.24
2018-10-05T00:57:14.586Z,1018.22
2018-10-05T00:58:14.581Z,1018.21
2018-10-05T00:59:14.574Z,1018.23
2018-10-05T01:00:14.566Z,1018.24
2018-10-05T01:01:14.565Z,1018.23
2018-10-05T01:02:14.559Z,1018.23
2018-10-05T01:03:14.553Z,1018.19
2018-10-05T01:04:14.545Z,1018.20
2018-10-05T01:05:14.534Z,1018.20
2018-10-05T01:06:14.530Z,1018.11
2018-10-05T01:07:14.520Z,1018.12
2018-10-05T01:08:14.513Z,1018.15
2018-10-05T01:09:14.512Z,1018.09
2018-10-05T01:10:14.505Z,1018.11
2018-10-05T01:11:14.500Z,1018.14
2018-10-05T01:12:14.488Z,1018.11
2018-10-05T01:13:14.484Z,1018.12
2018-10-05T01:14:14.479Z,1018.10
2018-10-05T01:15:14.474Z,1018.10
2018-10-05T01:16:14.466Z,1018.10
2018-10-05T01:17:14.456Z,1018.04
2018-10-05T01:18:14.449Z,1018.06
2018-10-05T01:19:14.442Z,1018.05
2018-10-05T01:20:14.435Z,1018.05
2018-10-05T01:21:14.434Z,1018.05
2018-10-05T01:22:14.428Z,1018.05
2018-10-05T01:23:14.420Z,1018.04
2018-10-05T01:24:14.412Z,1018.02
2018-10-05T01:25:14.403Z,1017.98
2018-10-05T01:26:14.396Z,1017.97
2018-10-05T01:27:14.394Z,1017.99
2018-10-05T01:28:14.386Z,1017.98
2018-10-05T01:29:14.375Z,1018.00
2018-10-05T01:30:14.375Z,1017.99
2018-10-05T01:31:14.364Z,1017.99
2018-10-05T01:32:14.355Z,1017.94
2018-10-05T01:33:14.355Z,1017.99
2018-10-05T01:34:14.348Z,1017.95
2018-10-05T01:35:14.342Z,1017.96
2018-10-05T01:36:14.334Z,1017.92
2018-10-05T01:37:14.327Z,1017.88
2018-10-05T01:38:14.321Z,1017.88
2018-10-05T01:39:14.312Z,1017.89
2018-10-05T01:40:14.303Z,1017.88
2018-10-05T01:41:14.301Z,1017.87
2018-10-05T01:42:14.294Z,1017.84
2018-10-05T01:43:14.283Z,1017.85
2018-10-05T01:44:14.276Z,1017.83
2018-10-05T01:45:14.274Z,1017.78
2018-10-05T01:46:14.272Z,1017.74
2018-10-05T01:47:14.263Z,1017.79
2018-10-05T01:48:14.255Z,1017.79
2018-10-05T01:49:14.243Z,1017.71
2018-10-05T01:50:14.237Z,1017.74
2018-10-05T01:51:14.234Z,1017.68
2018-10-05T01:52:14.223Z,1017.69
2018-10-05T01:53:14.221Z,1017.68
2018-10-05T01:54:14.214Z,1017.71
2018-10-05T01:55:14.209Z,1017.64
2018-10-05T01:56:14.201Z,1017.61
2018-10-05T01:57:14.190Z,1017.66
2018-10-05T01:58:14.184Z,1017.60
2018-10-05T01:59:14.183Z,1017.64
2018-10-05T02:00:14.176Z,1017.64
2018-10-05T02:01:14.163Z,1017.64
2018-10-05T02:02:14.157Z,1017.61
2018-10-05T02:03:14.153Z,1017.61
2018-10-05T02:04:14.143Z,1017.65
2018-10-05T02:05:14.141Z,1017.60
2018-10-05T02:06:14.182Z,1017.63
2018-10-05T02:07:14.127Z,1017.65
2018-10-05T02:08:14.120Z,1017.58
2018-10-05T02:09:14.109Z,1017.62
2018-10-05T02:10:14.104Z,1017.60
2018-10-05T02:11:14.099Z,1017.61
2018-10-05T02:12:14.089Z,1017.56
2018-10-05T02:13:14.089Z,1017.56
2018-10-05T02:14:14.081Z,1017.51
2018-10-05T02:15:14.070Z,1017.46
2018-10-05T02:16:14.063Z,1017.48
2018-10-05T02:17:14.062Z,1017.50
2018-10-05T02:18:14.053Z,1017.49
2018-10-05T02:19:14.047Z,1017.41
2018-10-05T02:20:14.041Z,1017.51
2018-10-05T02:21:14.029Z,1017.50
2018-10-05T02:22:14.028Z,1017.46
2018-10-05T02:23:14.016Z,1017.42
2018-10-05T02:24:14.008Z,1017.39
2018-10-05T02:25:14.006Z,1017.38
2018-10-05T02:26:14.000Z,1017.37
2018-10-05T02:27:13.995Z,1017.34
2018-10-05T02:28:13.986Z,1017.35
2018-10-05T02:29:13.975Z,1017.32
2018-10-05T02:30:13.969Z,1017.36
2018-10-05T02:31:13.967Z,1017.36
2018-10-05T02:32:13.961Z,1017.32
2018-10-05T02:33:13.950Z,1017.36
2018-10-05T02:34:13.941Z,1017.34
2018-10-05T02:35:13.935Z,1017.32
2018-10-05T02:36:13.928Z,1017.33
2018-10-05T02:37:13.929Z,1017.33
2018-10-05T02:38:13.919Z,1017.37
2018-10-05T02:39:13.912Z,1017.30
2018-10-05T02:40:13.906Z,1017.36
2018-10-05T02:41:13.893Z,1017.35
2018-10-05T02:42:13.888Z,1017.31
2018-10-05T02:43:13.882Z,1017.29
2018-10-05T02:44:13.873Z,1017.27
2018-10-05T02:45:13.871Z,1017.26
2018-10-05T02:46:13.866Z,1017.24
2018-10-05T02:47:13.853Z,1017.25
2018-10-05T02:48:13.847Z,1017.24
2018-10-05T02:49:13.847Z,1017.25
2018-10-05T02:50:13.838Z,1017.27
2018-10-05T02:51:13.831Z,1017.21
2018-10-05T02:52:13.824Z,1017.11
2018-10-05T02:53:13.811Z,1017.09
2018-10-05T02:54:13.808Z,1017.17
2018-10-05T02:55:13.800Z,1017.12
2018-10-05T02:56:13.791Z,1017.08
2018-10-05T02:57:13.788Z,1017.06
2018-10-05T02:58:13.783Z,1017.06
2018-10-05T02:59:13.776Z,1017.09
2018-10-05T03:00:13.769Z,1017.03
2018-10-05T03:01:13.756Z,1017.07
2018-10-05T03:02:13.750Z,1017.09
2018-10-05T03:03:13.748Z,1017.06
2018-10-05T03:04:13.740Z,1017.06
2018-10-05T03:05:13.729Z,1017.09
2018-10-05T03:06:13.722Z,1017.05
2018-10-05T03:07:13.717Z,1017.00
2018-10-05T03:08:13.709Z,1017.06
2018-10-05T03:09:13.707Z,1017.03
2018-10-05T03:10:13.702Z,1017.04
2018-10-05T03:11:13.693Z,1016.98
2018-10-05T03:12:13.684Z,1016.99
2018-10-05T03:13:13.676Z,1016.94
2018-10-05T03:14:13.671Z,1016.98
2018-10-05T03:15:13.718Z,1016.99
2018-10-05T03:16:13.653Z,1016.94
2018-10-05T03:17:13.650Z,1016.93
2018-10-05T03:18:13.645Z,1016.91
2018-10-05T03:19:13.633Z,1016.95
2018-10-05T03:20:13.626Z,1016.97
2018-10-05T03:21:13.623Z,1016.84
2018-10-05T03:22:13.618Z,1016.87
2018-10-05T03:23:13.611Z,1016.92
2018-10-05T03:24:13.604Z,1016.88
2018-10-05T03:25:13.592Z,1016.88
2018-10-05T03:26:13.588Z,1016.87
2018-10-05T03:27:13.578Z,1016.86
2018-10-05T03:28:13.571Z,1016.85
2018-10-05T03:29:13.568Z,1016.86
2018-10-05T03:30:13.563Z,1016.90
2018-10-05T03:31:13.556Z,1016.94
2018-10-05T03:32:13.552Z,1016.90
2018-10-05T03:33:13.538Z,1016.90
2018-10-05T03:34:13.532Z,1016.90
2018-10-05T03:35:13.528Z,1016.91
2018-10-05T03:36:13.520Z,1016.91
2018-10-05T03:37:13.510Z,1016.91
2018-10-05T03:38:13.501Z,1016.91
2018-10-05T03:39:13.498Z,1016.93
2018-10-05T03:40:13.487Z,1016.94
2018-10-05T03:41:13.486Z,1016.87
2018-10-05T03:42:13.479Z,1016.84
2018-10-05T03:43:13.471Z,1016.90
2018-10-05T03:44:13.463Z,1016.84
2018-10-05T03:45:13.454Z,1016.86
2018-10-05T03:46:13.446Z,1016.83
2018-10-05T03:47:13.440Z,1016.86
2018-10-05T03:48:13.431Z,1016.75
2018-10-05T03:49:13.429Z,1016.84
2018-10-05T03:50:13.423Z,1016.80
2018-10-05T03:51:13.411Z,1016.85
2018-10-05T03:52:13.403Z,1016.82
2018-10-05T03:53:13.401Z,1016.80
2018-10-05T03:54:13.396Z,1016.78
2018-10-05T03:55:13.388Z,1016.80
2018-10-05T03:56:13.381Z,1016.77
2018-10-05T03:57:13.369Z,1016.78
2018-10-05T03:58:13.364Z,1016.79
2018-10-05T03:59:13.354Z,1016.80
2018-10-05T04:00:13.347Z,1016.78
2018-10-05T04:01:13.344Z,1016.76
2018-10-05T04:02:13.338Z,1016.80
2018-10-05T04:03:13.332Z,1016.83
2018-10-05T04:04:13.325Z,1016.81
2018-10-05T04:05:13.311Z,1016.70
2018-10-05T04:06:13.304Z,1016.77
2018-10-05T04:07:13.302Z,1016.78
2018-10-05T04:08:13.295Z,1016.73
2018-10-05T04:09:13.284Z,1016.73
2018-10-05T04:10:13.276Z,1016.71
2018-10-05T04:11:13.270Z,1016.72
2018-10-05T04:12:13.262Z,1016.71
2018-10-05T04:13:13.262Z,1016.71
2018-10-05T04:14:13.252Z,1016.68
2018-10-05T04:15:13.248Z,1016.69
2018-10-05T04:16:13.240Z,1016.70
2018-10-05T04:17:13.229Z,1016.66
2018-10-05T04:18:13.219Z,1016.65
2018-10-05T04:19:13.215Z,1016.58
2018-10-05T04:20:13.206Z,1016.59
2018-10-05T04:21:13.207Z,1016.54
2018-10-05T04:22:13.200Z,1016.54
2018-10-05T04:23:13.184Z,1016.52
2018-10-05T04:24:13.176Z,1016.56
2018-10-05T04:25:13.173Z,1016.52
2018-10-05T04:26:13.168Z,1016.49
2018-10-05T04:27:13.171Z,1016.47
2018-10-05T04:28:13.152Z,1016.48
2018-10-05T04:29:13.140Z,1016.45
2018-10-05T04:30:13.134Z,1016.42
2018-10-05T04:31:13.128Z,1016.46
2018-10-05T04:32:13.119Z,1016.43
2018-10-05T04:33:13.117Z,1016.34
2018-10-05T04:34:13.111Z,1016.38
2018-10-05T04:35:13.103Z,1016.28
2018-10-05T04:36:13.096Z,1016.26
2018-10-05T04:37:13.084Z,1016.27
2018-10-05T04:38:13.079Z,1016.28
2018-10-05T04:39:13.074Z,1016.29
2018-10-05T04:40:13.067Z,1016.21
2018-10-05T04:41:13.093Z,1016.22
2018-10-05T04:42:13.048Z,1016.21
2018-10-05T04:43:13.040Z,1016.19
2018-10-05T04:44:13.032Z,1016.15
2018-10-05T04:45:13.030Z,1016.12
2018-10-05T04:46:13.023Z,1016.16
2018-10-05T04:47:13.016Z,1016.13
2018-10-05T04:48:13.009Z,1016.12
2018-10-05T04:49:12.999Z,1016.10
2018-10-05T04:50:12.990Z,1016.09
2018-10-05T04:51:12.984Z,1016.10
2018-10-05T04:52:12.976Z,1016.10
2018-10-05T04:53:12.974Z,1016.13
2018-10-05T04:54:12.966Z,1016.08
2018-10-05T04:55:12.958Z,1016.11
2018-10-05T04:56:12.948Z,1016.08
2018-10-05T04:57:12.946Z,1016.09
2018-10-05T04:58:12.939Z,1016.12
2018-10-05T04:59:12.934Z,1016.08
2018-10-05T05:00:12.923Z,1016.10
2018-10-05T05:01:12.911Z,1016.10
2018-10-05T05:02:12.906Z,1016.10
2018-10-05T05:03:12.903Z,1016.06
2018-10-05T05:04:12.897Z,1016.05
2018-10-05T05:05:12.884Z,1016.08
2018-10-05T05:06:12.876Z,1016.13
2018-10-05T05:07:12.870Z,1016.07
2018-10-05T05:08:12.862Z,1016.07
2018-10-05T05:09:12.859Z,1016.06
2018-10-05T05:10:12.856Z,1016.11
2018-10-05T05:11:12.840Z,1016.07
2018-10-05T05:12:12.904Z,1016.10
2018-10-05T05:13:12.829Z,1016.12
2018-10-05T05:14:12.823Z,1016.09
2018-10-05T05:15:12.818Z,1016.09
2018-10-05T05:16:12.810Z,1016.14
2018-10-05T05:17:12.797Z,1016.12
2018-10-05T05:18:12.791Z,1016.10
2018-10-05T05:19:12.791Z,1016.11
2018-10-05T05:20:12.778Z,1016.15
2018-10-05T05:21:12.774Z,1016.12
2018-10-05T05:22:12.767Z,1016.12
2018-10-05T05:23:12.760Z,1016.10
2018-10-05T05:24:12.752Z,1016.11
2018-10-05T05:25:12.740Z,1016.07
2018-10-05T05:26:12.734Z,1016.07
2018-10-05T05:27:12.731Z,1016.14
2018-10-05T05:28:12.722Z,1016.07
2018-10-05T05:29:12.711Z,1016.10
2018-10-05T05:30:12.705Z,1016.04
2018-10-05T05:31:12.697Z,1016.10
2018-10-05T05:32:12.690Z,1016.08
2018-10-05T05:33:12.688Z,1016.10
2018-10-05T05:34:12.681Z,1016.03
2018-10-05T05:35:12.675Z,1016.10
2018-10-05T05:36:12.668Z,1016.06
2018-10-05T05:37:12.655Z,1016.03
2018-10-05T05:38:12.647Z,1016.05
2018-10-05T05:39:12.641Z,1016.03
2018-10-05T05:40:12.665Z,1016.06
2018-10-05T05:41:12.630Z,1015.97
2018-10-05T05:42:12.627Z,1016.05
2018-10-05T05:43:12.613Z,1015.98
2018-10-05T05:44:12.605Z,1016.02
2018-10-05T05:45:12.602Z,1016.00
2018-10-05T05:46:12.594Z,1016.05
2018-10-05T05:47:12.589Z,1016.03
2018-10-05T05:48:12.581Z,1016.02
2018-10-05T05:49:12.569Z,1016.02
2018-10-05T05:50:12.563Z,1016.04
2018-10-05T05:51:12.555Z,1016.03
2018-10-05T05:52:12.548Z,1016.04
2018-10-05T05:53:12.546Z,1016.04
2018-10-05T05:54:12.590Z,1016.02
2018-10-05T05:55:12.533Z,1016.05
2018-10-05T05:56:12.524Z,1016.04
2018-10-05T05:57:12.513Z,1016.02
2018-10-05T05:58:12.508Z,1016.01
2018-10-05T05:59:12.507Z,1016.03
2018-10-05T06:00:12.502Z,1015.99
2018-10-05T06:01:12.595Z,1016.02
2018-10-05T06:02:12.478Z,1015.96
2018-10-05T06:03:12.473Z,1015.98
2018-10-05T06:04:12.465Z,1015.96
2018-10-05T06:05:12.464Z,1016.02
2018-10-05T06:06:12.457Z,1016.01
2018-10-05T06:07:12.456Z,1016.01
2018-10-05T06:08:12.528Z,1016.03
2018-10-05T06:09:12.430Z,1016.14
2018-10-05T06:10:12.424Z,1016.11
2018-10-05T06:11:12.419Z,1016.17
2018-10-05T06:12:12.413Z,1016.29
2018-10-05T06:13:12.408Z,1016.41
2018-10-05T06:14:12.402Z,1016.45
2018-10-05T06:15:12.391Z,1016.50
2018-10-05T06:16:12.501Z,1016.49
2018-10-05T06:17:12.383Z,1016.52
2018-10-05T06:18:12.379Z,1016.50
2018-10-05T06:19:12.371Z,1016.60
2018-10-05T06:20:12.364Z,1016.55
2018-10-05T06:21:12.354Z,1016.56
2018-10-05T06:22:12.575Z,1016.62
2018-10-05T06:23:12.344Z,1016.65
2018-10-05T06:24:12.340Z,1016.71
2018-10-05T06:25:12.338Z,1016.73
2018-10-05T06:26:12.336Z,1016.81
2018-10-05T06:27:12.384Z,1016.79
2018-10-05T06:28:12.326Z,1016.89
2018-10-05T06:29:12.318Z,1016.91
2018-10-05T06:30:12.314Z,1016.93
2018-10-05T06:31:12.372Z,1016.93
2018-10-05T06:32:12.313Z,1016.93
2018-10-05T06:33:12.336Z,1016.90
2018-10-05T06:34:12.305Z,1016.85
2018-10-05T06:35:12.300Z,1016.82
2018-10-05T06:36:12.297Z,1016.91
2018-10-05T06:37:12.303Z,1016.92
2018-10-05T06:38:12.409Z,1017.06
2018-10-05T06:39:12.464Z,1017.08
2018-10-05T06:40:12.296Z,1017.06
2018-10-05T06:41:12.289Z,1017.03
2018-10-05T06:42:12.434Z,1017.06
2018-10-05T06:43:12.295Z,1017.04
2018-10-05T06:44:12.288Z,1017.11
2018-10-05T06:45:12.293Z,1017.09
2018-10-05T06:46:12.293Z,1017.14
2018-10-05T06:47:12.288Z,1017.14
2018-10-05T06:48:12.287Z,1017.15
2018-10-05T06:49:12.293Z,1017.14
2018-10-05T06:50:12.294Z,1017.17
2018-10-05T06:51:12.294Z,1017.13
2018-10-05T06:52:12.294Z,1017.17
2018-10-05T06:53:12.342Z,1017.21
2018-10-05T06:54:12.292Z,1017.22
2018-10-05T06:55:12.294Z,1017.28
2018-10-05T06:56:12.293Z,1017.25
2018-10-05T06:57:12.301Z,1017.30
2018-10-05T06:58:12.303Z,1017.34
2018-10-05T06:59:12.305Z,1017.36
2018-10-05T07:00:12.307Z,1017.34
2018-10-05T07:01:12.315Z,1017.37
2018-10-05T07:02:12.307Z,1017.36
2018-10-05T07:03:12.314Z,1017.37
2018-10-05T07:04:12.315Z,1017.35
2018-10-05T07:05:12.313Z,1017.36
2018-10-05T07:06:12.316Z,1017.36
2018-10-05T07:07:12.318Z,1017.41
2018-10-05T07:08:12.381Z,1017.36
2018-10-05T07:09:12.328Z,1017.39
2018-10-05T07:10:12.333Z,1017.42
2018-10-05T07:11:12.336Z,1017.40
2018-10-05T07:12:12.338Z,1017.44
2018-10-05T07:13:12.338Z,1017.46
2018-10-05T07:14:12.342Z,1017.43
2018-10-05T07:15:12.344Z,1017.40
2018-10-05T07:16:12.347Z,1017.44
2018-10-05T07:17:12.355Z,1017.51
2018-10-05T07:18:12.359Z,1017.52
2018-10-05T07:19:12.363Z,1017.52
2018-10-05T07:20:12.362Z,1017.48
2018-10-05T07:21:12.416Z,1017.46
2018-10-05T07:22:12.381Z,1017.51
2018-10-05T07:23:12.381Z,1017.52
2018-10-05T07:24:12.384Z,1017.54
2018-10-05T07:25:12.383Z,1017.54
2018-10-05T07:26:12.439Z,1017.60
2018-10-05T07:27:12.393Z,1017.59
2018-10-05T07:28:12.444Z,1017.54
2018-10-05T07:29:12.406Z,1017.55
2018-10-05T07:30:12.412Z,1017.53
2018-10-05T07:31:12.415Z,1017.57
2018-10-05T07:32:12.420Z,1017.62
2018-10-05T07:33:12.420Z,1017.59
2018-10-05T07:34:12.436Z,1017.63
2018-10-05T07:35:12.435Z,1017.60
2018-10-05T07:36:12.445Z,1017.60
2018-10-05T07:37:12.445Z,1016.73
2018-10-05T07:38:12.445Z,1016.74
2018-10-05T07:39:12.451Z,1016.73
2018-10-05T07:40:12.457Z,1016.70
2018-10-05T07:41:12.469Z,1016.72
2018-10-05T07:42:12.473Z,1016.69
2018-10-05T07:43:12.483Z,1016.71
2018-10-05T07:44:12.483Z,1016.66
2018-10-05T07:45:12.482Z,1016.68
2018-10-05T07:46:12.494Z,1016.70
2018-10-05T07:47:12.495Z,1016.72
2018-10-05T07:48:12.499Z,1016.76
2018-10-05T07:49:12.509Z,1016.76
2018-10-05T07:50:12.516Z,1016.74
2018-10-05T07:51:12.516Z,1016.73
2018-10-05T07:52:12.521Z,1016.75
2018-10-05T07:53:12.532Z,1016.78
2018-10-05T07:54:12.537Z,1016.75
2018-10-05T07:55:12.545Z,1016.79
2018-10-05T07:56:12.551Z,1016.82
2018-10-05T07:57:12.554Z,1016.80
2018-10-05T07:58:12.559Z,1016.77
2018-10-05T07:59:12.572Z,1016.81
2018-10-05T08:00:12.569Z,1016.86
2018-10-05T08:01:12.580Z,1016.88
2018-10-05T08:02:12.587Z,1016.89
2018-10-05T08:03:12.596Z,1016.94
2018-10-05T08:04:12.598Z,1016.89
2018-10-05T08:05:12.600Z,1016.89
2018-10-05T08:06:12.606Z,1016.91
2018-10-05T08:07:12.617Z,1016.91
2018-10-05T08:08:12.624Z,1016.95
2018-10-05T08:09:12.626Z,1016.88
2018-10-05T08:10:12.634Z,1016.92
2018-10-05T08:11:12.639Z,1016.92
2018-10-05T08:12:12.646Z,1016.90
2018-10-05T08:13:12.658Z,1016.89
2018-10-05T08:14:12.665Z,1016.86
2018-10-05T08:15:12.670Z,1016.91
2018-10-05T08:16:12.677Z,1016.85
2018-10-05T08:17:12.682Z,1016.90
2018-10-05T08:18:12.691Z,1016.87
2018-10-05T08:19:12.694Z,1016.85
2018-10-05T08:20:12.700Z,1016.87
2018-10-05T08:21:12.713Z,1016.92
2018-10-05T08:22:12.721Z,1016.93
2018-10-05T08:23:12.723Z,1016.88
2018-10-05T08:24:12.730Z,1016.92
2018-10-05T08:25:12.741Z,1016.92
2018-10-05T08:26:12.748Z,1016.92
2018-10-05T08:27:12.849Z,1016.91
2018-10-05T08:28:12.764Z,1016.89
2018-10-05T08:29:12.766Z,1016.91
2018-10-05T08:30:12.773Z,1016.92
2018-10-05T08:31:12.781Z,1016.99
2018-10-05T08:32:12.788Z,1016.96
2018-10-05T08:33:12.800Z,1016.98
2018-10-05T08:34:13.010Z,1017.01
2018-10-05T08:35:12.818Z,1016.97
2018-10-05T08:36:12.826Z,1016.96
2018-10-05T08:37:12.828Z,1016.95
2018-10-05T08:38:12.836Z,1016.99
2018-10-05T08:39:12.854Z,1016.92
2018-10-05T08:40:12.890Z,1016.91
2018-10-05T08:41:12.860Z,1016.92
2018-10-05T08:42:12.869Z,1016.93
2018-10-05T08:43:12.878Z,1016.95
2018-10-05T08:44:12.885Z,1016.92
2018-10-05T08:45:12.897Z,1016.89
2018-10-05T08:46:12.906Z,1016.92
2018-10-05T08:47:12.916Z,1016.89
2018-10-05T08:48:12.923Z,1016.94
2018-10-05T08:49:12.928Z,1016.89
2018-10-05T08:50:12.938Z,1016.92
2018-10-05T08:51:12.946Z,1016.85
2018-10-05T08:52:13.015Z,1016.90
2018-10-05T08:53:12.968Z,1016.87
2018-10-05T08:54:12.978Z,1016.88
2018-10-05T08:55:12.982Z,1016.89
2018-10-05T08:56:12.994Z,1016.88
2018-10-05T08:57:13.005Z,1016.88
2018-10-05T08:58:13.015Z,1016.87
2018-10-05T08:59:13.023Z,1016.85
2018-10-05T09:00:13.092Z,1016.85
2018-10-05T09:01:13.039Z,1016.90
2018-10-05T09:02:13.048Z,1016.87
2018-10-05T09:03:13.058Z,1016.89
2018-10-05T09:04:13.068Z,1016.83
2018-10-05T09:05:13.079Z,1016.85
2018-10-05T09:06:13.090Z,1016.83
2018-10-05T09:07:13.101Z,1016.90
2018-10-05T09:08:13.109Z,1016.79
2018-10-05T09:09:13.114Z,1016.81
2018-10-05T09:10:13.123Z,1016.89
2018-10-05T09:11:13.156Z,1016.90
2018-10-05T09:12:13.149Z,1016.89
2018-10-05T09:13:13.154Z,1016.89
2018-10-05T09:14:13.164Z,1016.89
2018-10-05T09:15:13.175Z,1016.89
2018-10-05T09:16:13.184Z,1016.92
2018-10-05T09:17:13.200Z,1016.90
2018-10-05T09:18:13.270Z,1016.88
2018-10-05T09:19:13.221Z,1016.84
2018-10-05T09:20:13.233Z,1016.92
2018-10-05T09:21:13.239Z,1016.91
2018-10-05T09:22:13.251Z,1016.95
2018-10-05T09:23:13.264Z,1016.94
2018-10-05T09:24:13.310Z,1016.89
2018-10-05T09:25:13.292Z,1016.95
2018-10-05T09:26:13.302Z,1016.95
2018-10-05T09:27:13.306Z,1017.00
2018-10-05T09:28:13.317Z,1016.93
2018-10-05T09:29:13.334Z,1016.85
2018-10-05T09:30:13.347Z,1016.82
2018-10-05T09:31:13.364Z,1016.76
2018-10-05T09:32:13.369Z,1016.65
2018-10-05T09:33:13.377Z,1016.61
2018-10-05T09:34:13.387Z,1016.66
2018-10-05T09:35:13.401Z,1016.61
2018-10-05T09:36:13.412Z,1016.56
2018-10-05T09:37:13.469Z,1016.57
2018-10-05T09:38:13.441Z,1016.53
2018-10-05T09:39:13.454Z,1016.48
2018-10-05T09:40:13.466Z,1016.41
2018-10-05T09:41:13.474Z,1016.37
2018-10-05T09:42:13.485Z,1016.32
2018-10-05T09:43:13.504Z,1016.26
2018-10-05T09:44:13.517Z,1016.22
2018-10-05T09:45:13.588Z,1016.27
2018-10-05T09:46:13.535Z,1016.10
2018-10-05T09:47:13.547Z,1016.16
2018-10-05T09:48:13.559Z,1016.11
2018-10-05T09:49:13.576Z,1016.03
2018-10-05T09:50:13.590Z,1015.99
2018-10-05T09:51:13.604Z,1015.98
2018-10-05T09:52:13.673Z,1015.92
2018-10-05T09:53:13.621Z,1015.90
2018-10-05T09:54:13.635Z,1015.92
2018-10-05T09:55:13.646Z,1015.94
2018-10-05T09:56:13.657Z,1015.90
2018-10-05T09:57:13.674Z,1015.88
2018-10-05T09:58:13.690Z,1015.82
2018-10-05T09:59:13.696Z,1015.83
2018-10-05T10:00:13.772Z,1015.78
2018-10-05T10:01:13.723Z,1015.85
2018-10-05T10:02:13.737Z,1015.77
2018-10-05T10:03:13.748Z,1015.73
2018-10-05T10:04:13.759Z,1015.65
2018-10-05T10:05:13.767Z,1015.71
2018-10-05T10:06:13.779Z,1015.72
2018-10-05T10:07:13.792Z,1015.72
2018-10-05T10:08:13.925Z,1015.71
2018-10-05T10:09:13.820Z,1015.69
2018-10-05T10:10:13.833Z,1015.64
2018-10-05T10:11:13.847Z,1015.63
2018-10-05T10:12:13.858Z,1015.64
2018-10-05T10:13:13.869Z,1015.58
2018-10-05T10:14:13.878Z,1015.58
2018-10-05T10:15:13.895Z,1015.59
2018-10-05T10:16:13.908Z,1015.57
2018-10-05T10:17:13.914Z,1015.66
2018-10-05T10:18:13.934Z,1015.58
2018-10-05T10:19:13.939Z,1015.58
2018-10-05T10:20:13.950Z,1015.61
2018-10-05T10:21:13.967Z,1015.65
2018-10-05T10:22:13.982Z,1015.62
2018-10-05T10:23:13.995Z,1015.56
2018-10-05T10:24:14.007Z,1015.68
2018-10-05T10:25:14.013Z,1015.57
2018-10-05T10:26:14.028Z,1015.55
2018-10-05T10:27:14.041Z,1015.53
2018-10-05T10:28:14.181Z,1015.51
2018-10-05T10:29:14.177Z,1015.48
2018-10-05T10:30:14.082Z,1015.48
2018-10-05T10:31:14.090Z,1015.53
2018-10-05T10:32:14.101Z,1015.42
2018-10-05T10:33:14.119Z,1015.47
2018-10-05T10:34:14.138Z,1015.46
2018-10-05T10:35:14.147Z,1015.42
2018-10-05T10:36:14.157Z,1015.46
2018-10-05T10:37:14.164Z,1015.41
2018-10-05T10:38:14.177Z,1015.33
2018-10-05T10:39:14.187Z,1015.35
2018-10-05T10:40:14.200Z,1015.33
2018-10-05T10:41:14.217Z,1015.26
2018-10-05T10:42:14.228Z,1015.26
2018-10-05T10:43:14.240Z,1015.21
2018-10-05T10:44:14.252Z,1015.25
2018-10-05T10:45:14.258Z,1015.20
2018-10-05T10:46:14.273Z,1015.19
2018-10-05T10:47:14.286Z,1015.15
2018-10-05T10:48:14.367Z,1015.14
2018-10-05T10:49:14.304Z,1015.10
2018-10-05T10:50:14.317Z,1015.11
2018-10-05T10:51:14.331Z,1015.10
2018-10-05T10:52:14.339Z,1015.10
2018-10-05T10:53:14.355Z,1015.06
2018-10-05T10:54:14.425Z,1015.03
2018-10-05T10:55:14.379Z,1015.03
2018-10-05T10:56:14.454Z,1015.02
2018-10-05T10:57:14.396Z,1014.95
2018-10-05T10:58:14.407Z,1014.94
2018-10-05T10:59:14.418Z,1014.90
2018-10-05T11:00:14.432Z,1014.94
2018-10-05T11:01:14.449Z,1014.80
2018-10-05T11:02:14.456Z,1014.78
2018-10-05T11:03:14.501Z,1014.79
2018-10-05T11:04:14.491Z,1014.77
2018-10-05T11:05:14.490Z,1014.76
2018-10-05T11:06:14.501Z,1014.70
2018-10-05T11:07:14.514Z,1014.66
2018-10-05T11:08:14.523Z,1014.68
2018-10-05T11:09:14.528Z,1014.71
2018-10-05T11:10:14.539Z,1014.72
2018-10-05T11:11:14.618Z,1014.70
2018-10-05T11:12:14.560Z,1014.60
2018-10-05T11:13:14.576Z,1014.54
2018-10-05T11:14:14.587Z,1014.47
2018-10-05T11:15:14.596Z,1014.38
2018-10-05T11:16:14.605Z,1014.36
2018-10-05T11:17:14.610Z,1014.31
2018-10-05T11:18:14.620Z,1014.28
2018-10-05T11:19:14.634Z,1014.23
2018-10-05T11:20:14.642Z,1014.25
2018-10-05T11:21:14.649Z,1014.23
2018-10-05T11:22:14.656Z,1014.14
2018-10-05T11:23:14.763Z,1014.09
2018-10-05T11:24:14.672Z,1014.05
2018-10-05T11:25:14.685Z,1014.05
2018-10-05T11:26:14.698Z,1014.05
2018-10-05T11:27:14.698Z,1014.02
2018-10-05T11:28:14.707Z,1014.02
2018-10-05T11:29:14.706Z,1013.97
2018-10-05T11:30:14.713Z,1013.92
2018-10-05T11:31:14.720Z,1013.97
2018-10-05T11:32:14.725Z,1013.90
2018-10-05T11:33:14.736Z,1013.92
2018-10-05T11:34:14.741Z,1013.88
2018-10-05T11:35:14.747Z,1013.84
2018-10-05T11:36:14.746Z,1013.81
2018-10-05T11:37:14.757Z,1013.76
2018-10-05T11:38:14.760Z,1013.69
2018-10-05T11:39:14.764Z,1013.74
2018-10-05T11:40:14.770Z,1013.69
2018-10-05T11:41:14.769Z,1013.64
2018-10-05T11:42:14.772Z,1013.65
2018-10-05T11:43:14.778Z,1013.62
2018-10-05T11:44:14.780Z,1013.60
2018-10-05T11:45:14.789Z,1013.61
2018-10-05T11:46:14.800Z,1013.58
2018-10-05T11:47:14.797Z,1013.54
2018-10-05T11:48:14.799Z,1013.56
2018-10-05T11:49:14.798Z,1013.56
2018-10-05T11:50:14.802Z,1013.54
2018-10-05T11:51:14.811Z,1013.52
2018-10-05T11:52:14.831Z,1013.49
2018-10-05T11:53:14.812Z,1013.48
2018-10-05T11:54:14.813Z,1013.49
2018-10-05T11:55:14.817Z,1013.48
2018-10-05T11:56:14.818Z,1013.46
2018-10-05T11:57:14.838Z,1013.44
2018-10-05T11:58:14.828Z,1013.43
2018-10-05T11:59:14.833Z,1013.44
2018-10-05T12:00:14.833Z,1013.44
2018-10-05T12:01:14.831Z,1013.42
2018-10-05T12:02:14.833Z,1013.37
2018-10-05T12:03:14.837Z,1013.38
2018-10-05T12:04:14.837Z,1013.40
2018-10-05T12:05:14.854Z,1013.39